PWSweather.com
Personal Weather Stations
Station Observations
ELGHEKO
El Gheko Neighborhood Association, Tucson, AZ 85710

El Gheko Neighborhood AssociationTucson, AZ 85710

Lat: 32.226108, Lon: -110.84443

Elevation: 2598

Station Type: Davis 6153 Vantage Pro 2

http://www.elgheko.us

High Low Average
Temperature 107.4°F41.9°C 82.5°F28.1°C 94.8°F34.9°C
Dew Point 63.9°F17.7°C 41.3°F5.2°C 50.9°F10.5°C
Winds 11.0 mph 17.7 kmh Calm Calm 5.0 mph SW8.0 kmh SW
Wind Gusts 22.0 mph35.4 kmh -- 10.0 mph16.1 kmh
Humidity 48% 12% 25%
Pressure 29.73 in1006.8 mb 29.55 in1000.7 mb -
Precipitation 0.04 in1.0 mm - -
Hour Temp Dew Point Humidity Winds Wind Gusts Pressure Precip Precip Rate Daily Precip Total
12:00 AM 90.8°F32.7°C 47.9°F8.8°C 23% 1.0 mph WSW1.6 kmh WSW 2.0 mph3.2 kmh 29.66 in1004.4 mb 0.00 in0.0 mm 0.00 in0.0 mm 0.00 in0.0 mm
12:05 AM 90.5°F32.5°C 48.8°F9.3°C 24% 1.0 mph WSW1.6 kmh WSW 2.0 mph3.2 kmh 29.66 in1004.4 mb 0.00 in0.0 mm 0.00 in0.0 mm 0.00 in0.0 mm
12:10 AM 90.2°F32.3°C 48.5°F9.2°C 24% 1.0 mph WSW1.6 kmh WSW 3.0 mph4.8 kmh 29.66 in1004.4 mb 0.00 in0.0 mm 0.00 in0.0 mm 0.00 in0.0 mm
12:15 AM 90.0°F32.2°C 49.5°F9.7°C 25% 2.0 mph WSW3.2 kmh WSW 4.0 mph6.4 kmh 29.66 in1004.4 mb 0.00 in0.0 mm 0.00 in0.0 mm 0.00 in0.0 mm
12:20 AM 89.8°F32.1°C 49.3°F9.6°C 25% 2.0 mph SW3.2 kmh SW 4.0 mph6.4 kmh 29.66 in1004.4 mb 0.00 in0.0 mm 0.00 in0.0 mm 0.00 in0.0 mm
12:25 AM 89.6°F32.0°C 48.0°F8.9°C 24% 3.0 mph S4.8 kmh S 7.0 mph11.3 kmh 29.66 in1004.4 mb 0.00 in0.0 mm 0.00 in0.0 mm 0.00 in0.0 mm
12:30 AM 89.4°F31.9°C 47.9°F8.8°C 24% 4.0 mph S6.4 kmh S 9.0 mph14.5 kmh 29.66 in1004.4 mb 0.00 in0.0 mm 0.00 in0.0 mm 0.00 in0.0 mm
12:35 AM 89.1°F31.7°C 48.7°F9.3°C 25% 4.0 mph S6.4 kmh S 10.0 mph16.1 kmh 29.66 in1004.4 mb 0.00 in0.0 mm 0.00 in0.0 mm 0.00 in0.0 mm
12:40 AM 88.9°F31.6°C 49.6°F9.8°C 26% 4.0 mph S6.4 kmh S 10.0 mph16.1 kmh 29.66 in1004.4 mb 0.00 in0.0 mm 0.00 in0.0 mm 0.00 in0.0 mm
12:45 AM 88.7°F31.5°C 50.4°F10.2°C 27% 4.0 mph S6.4 kmh S 8.0 mph12.9 kmh 29.66 in1004.4 mb 0.00 in0.0 mm 0.00 in0.0 mm 0.00 in0.0 mm
12:50 AM 88.5°F31.4°C 50.3°F10.2°C 27% 4.0 mph S6.4 kmh S 8.0 mph12.9 kmh 29.65 in1004.1 mb 0.00 in0.0 mm 0.00 in0.0 mm 0.00 in0.0 mm
12:55 AM 88.4°F31.3°C 51.1°F10.6°C 28% 3.0 mph S4.8 kmh S 6.0 mph9.7 kmh 29.65 in1004.1 mb 0.00 in0.0 mm 0.00 in0.0 mm 0.00 in0.0 mm
01:00 AM 88.2°F31.2°C 51.0°F10.6°C 28% 3.0 mph SSE4.8 kmh SSE 7.0 mph11.3 kmh 29.66 in1004.4 mb 0.00 in0.0 mm 0.00 in0.0 mm 0.00 in0.0 mm
01:05 AM 88.2°F31.2°C 51.9°F11.1°C 29% 3.0 mph SE4.8 kmh SE 7.0 mph11.3 kmh 29.66 in1004.4 mb 0.00 in0.0 mm 0.00 in0.0 mm 0.00 in0.0 mm
01:10 AM 88.1°F31.2°C 51.8°F11.0°C 29% 2.0 mph SE3.2 kmh SE 6.0 mph9.7 kmh 29.65 in1004.1 mb 0.00 in0.0 mm 0.00 in0.0 mm 0.00 in0.0 mm
01:15 AM 88.0°F31.1°C 51.8°F11.0°C 29% 2.0 mph SE3.2 kmh SE 6.0 mph9.7 kmh 29.65 in1004.1 mb 0.00 in0.0 mm 0.00 in0.0 mm 0.00 in0.0 mm
01:20 AM 88.0°F31.1°C 51.8°F11.0°C 29% 1.0 mph SE1.6 kmh SE 5.0 mph8.0 kmh 29.66 in1004.4 mb 0.00 in0.0 mm 0.00 in0.0 mm 0.00 in0.0 mm
01:25 AM 87.8°F31.0°C 52.5°F11.4°C 30% 2.0 mph SE3.2 kmh SE 7.0 mph11.3 kmh 29.66 in1004.4 mb 0.00 in0.0 mm 0.00 in0.0 mm 0.00 in0.0 mm
01:30 AM 87.8°F31.0°C 52.5°F11.4°C 30% 2.0 mph SSE3.2 kmh SSE 7.0 mph11.3 kmh 29.66 in1004.4 mb 0.00 in0.0 mm 0.00 in0.0 mm 0.00 in0.0 mm
01:35 AM 87.6°F30.9°C 52.3°F11.3°C 30% 2.0 mph S3.2 kmh S 5.0 mph8.0 kmh 29.66 in1004.4 mb 0.00 in0.0 mm 0.00 in0.0 mm 0.00 in0.0 mm
01:40 AM 87.5°F30.8°C 52.2°F11.2°C 30% 2.0 mph S3.2 kmh S 5.0 mph8.0 kmh 29.65 in1004.1 mb 0.00 in0.0 mm 0.00 in0.0 mm 0.00 in0.0 mm
01:45 AM 87.4°F30.8°C 52.2°F11.2°C 30% 2.0 mph S3.2 kmh S 5.0 mph8.0 kmh 29.66 in1004.4 mb 0.00 in0.0 mm 0.00 in0.0 mm 0.00 in0.0 mm
01:50 AM 87.3°F30.7°C 53.0°F11.7°C 31% 1.0 mph S1.6 kmh S 4.0 mph6.4 kmh 29.66 in1004.4 mb 0.00 in0.0 mm 0.00 in0.0 mm 0.00 in0.0 mm
01:55 AM 87.2°F30.7°C 52.9°F11.6°C 31% 1.0 mph S1.6 kmh S 3.0 mph4.8 kmh 29.66 in1004.4 mb 0.00 in0.0 mm 0.00 in0.0 mm 0.00 in0.0 mm
02:00 AM 87.0°F30.6°C 52.7°F11.5°C 31% 1.0 mph S1.6 kmh S 3.0 mph4.8 kmh 29.66 in1004.4 mb 0.00 in0.0 mm 0.00 in0.0 mm 0.00 in0.0 mm
02:05 AM 86.9°F30.5°C 52.6°F11.4°C 31% 1.0 mph S1.6 kmh S 3.0 mph4.8 kmh 29.66 in1004.4 mb 0.00 in0.0 mm 0.00 in0.0 mm 0.00 in0.0 mm
02:10 AM 86.7°F30.4°C 52.4°F11.3°C 31% Calm Calm 2.0 mph3.2 kmh 29.66 in1004.4 mb 0.00 in0.0 mm 0.00 in0.0 mm 0.00 in0.0 mm
02:15 AM 86.5°F30.3°C 52.3°F11.3°C 31% Calm Calm 2.0 mph3.2 kmh 29.66 in1004.4 mb 0.00 in0.0 mm 0.00 in0.0 mm 0.00 in0.0 mm
02:20 AM 86.2°F30.1°C 52.0°F11.1°C 31% 1.0 mph S1.6 kmh S 2.0 mph3.2 kmh 29.67 in1004.7 mb 0.00 in0.0 mm 0.00 in0.0 mm 0.00 in0.0 mm
02:25 AM 86.0°F30.0°C 53.5°F11.9°C 33% 1.0 mph SSE1.6 kmh SSE 4.0 mph6.4 kmh 29.67 in1004.7 mb 0.00 in0.0 mm 0.00 in0.0 mm 0.00 in0.0 mm
02:30 AM 85.7°F29.8°C 54.1°F12.3°C 34% 2.0 mph SE3.2 kmh SE 6.0 mph9.7 kmh 29.67 in1004.7 mb 0.00 in0.0 mm 0.00 in0.0 mm 0.00 in0.0 mm
02:35 AM 85.6°F29.8°C 54.8°F12.7°C 35% 3.0 mph SSE4.8 kmh SSE 6.0 mph9.7 kmh 29.67 in1004.7 mb 0.00 in0.0 mm 0.00 in0.0 mm 0.00 in0.0 mm
02:40 AM 85.5°F29.7°C 54.7°F12.6°C 35% 3.0 mph S4.8 kmh S 6.0 mph9.7 kmh 29.67 in1004.7 mb 0.00 in0.0 mm 0.00 in0.0 mm 0.00 in0.0 mm
02:45 AM 85.4°F29.7°C 54.6°F12.6°C 35% 2.0 mph SSE3.2 kmh SSE 6.0 mph9.7 kmh 29.67 in1004.7 mb 0.00 in0.0 mm 0.00 in0.0 mm 0.00 in0.0 mm
02:50 AM 85.2°F29.6°C 54.5°F12.5°C 35% 3.0 mph SSE4.8 kmh SSE 6.0 mph9.7 kmh 29.67 in1004.7 mb 0.00 in0.0 mm 0.00 in0.0 mm 0.00 in0.0 mm
02:55 AM 85.1°F29.5°C 55.1°F12.8°C 36% 3.0 mph SSE4.8 kmh SSE 7.0 mph11.3 kmh 29.67 in1004.7 mb 0.00 in0.0 mm 0.00 in0.0 mm 0.00 in0.0 mm
03:00 AM 85.0°F29.4°C 55.8°F13.2°C 37% 3.0 mph S4.8 kmh S 8.0 mph12.9 kmh 29.67 in1004.7 mb 0.00 in0.0 mm 0.00 in0.0 mm 0.00 in0.0 mm
03:05 AM 84.9°F29.4°C 55.7°F13.2°C 37% 3.0 mph S4.8 kmh S 8.0 mph12.9 kmh 29.67 in1004.7 mb 0.00 in0.0 mm 0.00 in0.0 mm 0.00 in0.0 mm
03:10 AM 84.8°F29.3°C 56.4°F13.6°C 38% 3.0 mph SSE4.8 kmh SSE 7.0 mph11.3 kmh 29.67 in1004.7 mb 0.00 in0.0 mm 0.00 in0.0 mm 0.00 in0.0 mm
03:15 AM 84.7°F29.3°C 56.3°F13.5°C 38% 2.0 mph SSE3.2 kmh SSE 4.0 mph6.4 kmh 29.67 in1004.7 mb 0.00 in0.0 mm 0.00 in0.0 mm 0.00 in0.0 mm
03:20 AM 84.6°F29.2°C 56.2°F13.4°C 38% 1.0 mph S1.6 kmh S 4.0 mph6.4 kmh 29.68 in1005.1 mb 0.00 in0.0 mm 0.00 in0.0 mm 0.00 in0.0 mm
03:25 AM 84.5°F29.2°C 56.1°F13.4°C 38% Calm Calm 1.0 mph1.6 kmh 29.68 in1005.1 mb 0.00 in0.0 mm 0.00 in0.0 mm 0.00 in0.0 mm
03:30 AM 84.3°F29.1°C 55.9°F13.3°C 38% 1.0 mph S1.6 kmh S 3.0 mph4.8 kmh 29.68 in1005.1 mb 0.00 in0.0 mm 0.00 in0.0 mm 0.00 in0.0 mm
03:35 AM 84.1°F28.9°C 55.7°F13.2°C 38% 1.0 mph S1.6 kmh S 3.0 mph4.8 kmh 29.68 in1005.1 mb 0.00 in0.0 mm 0.00 in0.0 mm 0.00 in0.0 mm
03:40 AM 84.0°F28.9°C 55.7°F13.2°C 38% Calm Calm 2.0 mph3.2 kmh 29.68 in1005.1 mb 0.00 in0.0 mm 0.00 in0.0 mm 0.00 in0.0 mm
03:45 AM 83.8°F28.8°C 56.2°F13.4°C 39% Calm Calm -- 29.68 in1005.1 mb 0.00 in0.0 mm 0.00 in0.0 mm 0.00 in0.0 mm
03:50 AM 83.6°F28.7°C 55.3°F12.9°C 38% Calm Calm -- 29.68 in1005.1 mb 0.00 in0.0 mm 0.00 in0.0 mm 0.00 in0.0 mm
03:55 AM 83.5°F28.6°C 55.2°F12.9°C 38% Calm Calm 1.0 mph1.6 kmh 29.68 in1005.1 mb 0.00 in0.0 mm 0.00 in0.0 mm 0.00 in0.0 mm
04:00 AM 83.3°F28.5°C 55.0°F12.8°C 38% Calm Calm 1.0 mph1.6 kmh 29.68 in1005.1 mb 0.00 in0.0 mm 0.00 in0.0 mm 0.00 in0.0 mm
04:05 AM 83.2°F28.4°C 55.0°F12.8°C 38% Calm Calm -- 29.68 in1005.1 mb 0.00 in0.0 mm 0.00 in0.0 mm 0.00 in0.0 mm
04:10 AM 83.0°F28.3°C 55.5°F13.1°C 39% Calm Calm 3.0 mph4.8 kmh 29.67 in1004.7 mb 0.00 in0.0 mm 0.00 in0.0 mm 0.00 in0.0 mm
04:15 AM 83.0°F28.3°C 56.2°F13.4°C 40% 2.0 mph SSE3.2 kmh SSE 6.0 mph9.7 kmh 29.68 in1005.1 mb 0.00 in0.0 mm 0.00 in0.0 mm 0.00 in0.0 mm
04:20 AM 83.1°F28.4°C 56.3°F13.5°C 40% 3.0 mph SSE4.8 kmh SSE 6.0 mph9.7 kmh 29.67 in1004.7 mb 0.00 in0.0 mm 0.00 in0.0 mm 0.00 in0.0 mm
04:25 AM 83.2°F28.4°C 56.4°F13.6°C 40% 3.0 mph SSE4.8 kmh SSE 5.0 mph8.0 kmh 29.68 in1005.1 mb 0.00 in0.0 mm 0.00 in0.0 mm 0.00 in0.0 mm
04:30 AM 83.2°F28.4°C 56.4°F13.6°C 40% 2.0 mph SSE3.2 kmh SSE 5.0 mph8.0 kmh 29.67 in1004.7 mb 0.00 in0.0 mm 0.00 in0.0 mm 0.00 in0.0 mm
04:35 AM 83.2°F28.4°C 56.4°F13.6°C 40% 1.0 mph SE1.6 kmh SE 5.0 mph8.0 kmh 29.67 in1004.7 mb 0.00 in0.0 mm 0.00 in0.0 mm 0.00 in0.0 mm
04:40 AM 83.2°F28.4°C 56.4°F13.6°C 40% 1.0 mph SE1.6 kmh SE 2.0 mph3.2 kmh 29.67 in1004.7 mb 0.00 in0.0 mm 0.00 in0.0 mm 0.00 in0.0 mm
04:45 AM 83.2°F28.4°C 56.4°F13.6°C 40% 1.0 mph SE1.6 kmh SE 2.0 mph3.2 kmh 29.67 in1004.7 mb 0.00 in0.0 mm 0.00 in0.0 mm 0.00 in0.0 mm
04:50 AM 83.1°F28.4°C 56.3°F13.5°C 40% Calm Calm 2.0 mph3.2 kmh 29.68 in1005.1 mb 0.00 in0.0 mm 0.00 in0.0 mm 0.00 in0.0 mm
04:55 AM 83.0°F28.3°C 56.2°F13.4°C 40% 1.0 mph S1.6 kmh S 5.0 mph8.0 kmh 29.68 in1005.1 mb 0.00 in0.0 mm 0.00 in0.0 mm 0.00 in0.0 mm
05:00 AM 83.0°F28.3°C 56.9°F13.8°C 41% 2.0 mph S3.2 kmh S 5.0 mph8.0 kmh 29.68 in1005.1 mb 0.00 in0.0 mm 0.00 in0.0 mm 0.00 in0.0 mm
05:05 AM 83.1°F28.4°C 57.0°F13.9°C 41% 2.0 mph SSE3.2 kmh SSE 5.0 mph8.0 kmh 29.68 in1005.1 mb 0.00 in0.0 mm 0.00 in0.0 mm 0.00 in0.0 mm
05:10 AM 83.2°F28.4°C 57.1°F13.9°C 41% 2.0 mph SE3.2 kmh SE 5.0 mph8.0 kmh 29.68 in1005.1 mb 0.00 in0.0 mm 0.00 in0.0 mm 0.00 in0.0 mm
05:15 AM 83.2°F28.4°C 57.1°F13.9°C 41% 2.0 mph SSE3.2 kmh SSE 5.0 mph8.0 kmh 29.68 in1005.1 mb 0.00 in0.0 mm 0.00 in0.0 mm 0.00 in0.0 mm
05:20 AM 83.2°F28.4°C 57.1°F13.9°C 41% 2.0 mph S3.2 kmh S 4.0 mph6.4 kmh 29.68 in1005.1 mb 0.00 in0.0 mm 0.00 in0.0 mm 0.00 in0.0 mm
05:25 AM 83.2°F28.4°C 57.1°F13.9°C 41% 2.0 mph S3.2 kmh S 4.0 mph6.4 kmh 29.68 in1005.1 mb 0.00 in0.0 mm 0.00 in0.0 mm 0.00 in0.0 mm
05:30 AM 83.1°F28.4°C 56.3°F13.5°C 40% 2.0 mph S3.2 kmh S 4.0 mph6.4 kmh 29.69 in1005.4 mb 0.00 in0.0 mm 0.00 in0.0 mm 0.00 in0.0 mm
05:35 AM 83.1°F28.4°C 57.0°F13.9°C 41% 2.0 mph S3.2 kmh S 4.0 mph6.4 kmh 29.69 in1005.4 mb 0.00 in0.0 mm 0.00 in0.0 mm 0.00 in0.0 mm
05:40 AM 83.0°F28.3°C 56.9°F13.8°C 41% 2.0 mph S3.2 kmh S 5.0 mph8.0 kmh 29.70 in1005.8 mb 0.00 in0.0 mm 0.00 in0.0 mm 0.00 in0.0 mm
05:45 AM 83.0°F28.3°C 56.9°F13.8°C 41% 2.0 mph S3.2 kmh S 5.0 mph8.0 kmh 29.70 in1005.8 mb 0.00 in0.0 mm 0.00 in0.0 mm 0.00 in0.0 mm
05:50 AM 82.9°F28.3°C 56.8°F13.8°C 41% 3.0 mph SSE4.8 kmh SSE 6.0 mph9.7 kmh 29.70 in1005.8 mb 0.00 in0.0 mm 0.00 in0.0 mm 0.00 in0.0 mm
05:55 AM 82.9°F28.3°C 56.8°F13.8°C 41% 3.0 mph SSE4.8 kmh SSE 7.0 mph11.3 kmh 29.70 in1005.8 mb 0.00 in0.0 mm 0.00 in0.0 mm 0.00 in0.0 mm
06:00 AM 82.9°F28.3°C 56.8°F13.8°C 41% 3.0 mph S4.8 kmh S 7.0 mph11.3 kmh 29.70 in1005.8 mb 0.00 in0.0 mm 0.00 in0.0 mm 0.00 in0.0 mm
06:05 AM 82.8°F28.2°C 56.7°F13.7°C 41% 2.0 mph SSE3.2 kmh SSE 6.0 mph9.7 kmh 29.70 in1005.8 mb 0.00 in0.0 mm 0.00 in0.0 mm 0.00 in0.0 mm
06:10 AM 82.8°F28.2°C 56.7°F13.7°C 41% 2.0 mph SSE3.2 kmh SSE 3.0 mph4.8 kmh 29.70 in1005.8 mb 0.00 in0.0 mm 0.00 in0.0 mm 0.00 in0.0 mm
06:15 AM 82.8°F28.2°C 56.7°F13.7°C 41% 1.0 mph SSE1.6 kmh SSE 4.0 mph6.4 kmh 29.70 in1005.8 mb 0.00 in0.0 mm 0.00 in0.0 mm 0.00 in0.0 mm
06:20 AM 82.7°F28.2°C 56.6°F13.7°C 41% 1.0 mph SSE1.6 kmh SSE 4.0 mph6.4 kmh 29.71 in1006.1 mb 0.00 in0.0 mm 0.00 in0.0 mm 0.00 in0.0 mm
06:25 AM 82.7°F28.2°C 57.3°F14.1°C 42% 1.0 mph SSE1.6 kmh SSE 2.0 mph3.2 kmh 29.71 in1006.1 mb 0.00 in0.0 mm 0.00 in0.0 mm 0.00 in0.0 mm
06:30 AM 82.6°F28.1°C 57.2°F14.0°C 42% 2.0 mph ESE3.2 kmh ESE 4.0 mph6.4 kmh 29.71 in1006.1 mb 0.00 in0.0 mm 0.00 in0.0 mm 0.00 in0.0 mm
06:35 AM 82.6°F28.1°C 57.2°F14.0°C 42% 1.0 mph NE1.6 kmh NE 4.0 mph6.4 kmh 29.72 in1006.4 mb 0.00 in0.0 mm 0.00 in0.0 mm 0.00 in0.0 mm
06:40 AM 82.5°F28.1°C 57.1°F13.9°C 42% 1.0 mph NE1.6 kmh NE 3.0 mph4.8 kmh 29.72 in1006.4 mb 0.00 in0.0 mm 0.00 in0.0 mm 0.00 in0.0 mm
06:45 AM 82.6°F28.1°C 55.8°F13.2°C 40% 1.0 mph NE1.6 kmh NE 3.0 mph4.8 kmh 29.72 in1006.4 mb 0.00 in0.0 mm 0.00 in0.0 mm 0.00 in0.0 mm
06:50 AM 82.9°F28.3°C 55.4°F13.0°C 39% 1.0 mph NE1.6 kmh NE 3.0 mph4.8 kmh 29.72 in1006.4 mb 0.00 in0.0 mm 0.00 in0.0 mm 0.00 in0.0 mm
06:55 AM 83.3°F28.5°C 55.8°F13.2°C 39% 1.0 mph NE1.6 kmh NE 3.0 mph4.8 kmh 29.71 in1006.1 mb 0.00 in0.0 mm 0.00 in0.0 mm 0.00 in0.0 mm
07:00 AM 83.8°F28.8°C 56.2°F13.4°C 39% 2.0 mph NE3.2 kmh NE 4.0 mph6.4 kmh 29.72 in1006.4 mb 0.00 in0.0 mm 0.00 in0.0 mm 0.00 in0.0 mm
07:05 AM 84.4°F29.1°C 56.0°F13.3°C 38% 2.0 mph NE3.2 kmh NE 4.0 mph6.4 kmh 29.72 in1006.4 mb 0.00 in0.0 mm 0.00 in0.0 mm 0.00 in0.0 mm
07:10 AM 84.9°F29.4°C 56.5°F13.6°C 38% 2.0 mph NE3.2 kmh NE 4.0 mph6.4 kmh 29.72 in1006.4 mb 0.00 in0.0 mm 0.00 in0.0 mm 0.00 in0.0 mm
07:15 AM 85.5°F29.7°C 57.0°F13.9°C 38% 2.0 mph NE3.2 kmh NE 6.0 mph9.7 kmh 29.72 in1006.4 mb 0.00 in0.0 mm 0.00 in0.0 mm 0.00 in0.0 mm
07:20 AM 85.9°F29.9°C 56.6°F13.7°C 37% 3.0 mph E4.8 kmh E 6.0 mph9.7 kmh 29.72 in1006.4 mb 0.00 in0.0 mm 0.00 in0.0 mm 0.00 in0.0 mm
07:25 AM 86.4°F30.2°C 57.0°F13.9°C 37% 2.0 mph E3.2 kmh E 4.0 mph6.4 kmh 29.72 in1006.4 mb 0.00 in0.0 mm 0.00 in0.0 mm 0.00 in0.0 mm
07:30 AM 86.9°F30.5°C 57.5°F14.2°C 37% 2.0 mph SE3.2 kmh SE 4.0 mph6.4 kmh 29.72 in1006.4 mb 0.00 in0.0 mm 0.00 in0.0 mm 0.00 in0.0 mm
07:35 AM 87.4°F30.8°C 57.9°F14.4°C 37% 2.0 mph SE3.2 kmh SE 5.0 mph8.0 kmh 29.72 in1006.4 mb 0.00 in0.0 mm 0.00 in0.0 mm 0.00 in0.0 mm
07:40 AM 87.8°F31.0°C 57.5°F14.2°C 36% 2.0 mph SE3.2 kmh SE 5.0 mph8.0 kmh 29.72 in1006.4 mb 0.00 in0.0 mm 0.00 in0.0 mm 0.00 in0.0 mm
07:45 AM 88.3°F31.3°C 58.0°F14.4°C 36% 1.0 mph SE1.6 kmh SE 3.0 mph4.8 kmh 29.72 in1006.4 mb 0.00 in0.0 mm 0.00 in0.0 mm 0.00 in0.0 mm
07:50 AM 88.8°F31.6°C 57.6°F14.2°C 35% 1.0 mph SE1.6 kmh SE 3.0 mph4.8 kmh 29.72 in1006.4 mb 0.00 in0.0 mm 0.00 in0.0 mm 0.00 in0.0 mm
07:55 AM 89.3°F31.8°C 57.3°F14.1°C 34% 2.0 mph SE3.2 kmh SE 4.0 mph6.4 kmh 29.73 in1006.8 mb 0.00 in0.0 mm 0.00 in0.0 mm 0.00 in0.0 mm
08:00 AM 89.8°F32.1°C 57.7°F14.3°C 34% 2.0 mph SE3.2 kmh SE 4.0 mph6.4 kmh 29.72 in1006.4 mb 0.00 in0.0 mm 0.00 in0.0 mm 0.00 in0.0 mm
08:05 AM 90.4°F32.4°C 57.4°F14.1°C 33% 2.0 mph SSE3.2 kmh SSE 4.0 mph6.4 kmh 29.72 in1006.4 mb 0.00 in0.0 mm 0.00 in0.0 mm 0.00 in0.0 mm
08:10 AM 90.9°F32.7°C 57.0°F13.9°C 32% 2.0 mph S3.2 kmh S 3.0 mph4.8 kmh 29.72 in1006.4 mb 0.00 in0.0 mm 0.00 in0.0 mm 0.00 in0.0 mm
08:15 AM 91.6°F33.1°C 56.7°F13.7°C 31% 2.0 mph SSE3.2 kmh SSE 4.0 mph6.4 kmh 29.73 in1006.8 mb 0.00 in0.0 mm 0.00 in0.0 mm 0.00 in0.0 mm
08:20 AM 92.0°F33.3°C 56.1°F13.4°C 30% 2.0 mph SE3.2 kmh SE 4.0 mph6.4 kmh 29.73 in1006.8 mb 0.00 in0.0 mm 0.00 in0.0 mm 0.00 in0.0 mm
08:25 AM 92.2°F33.4°C 55.4°F13.0°C 29% 2.0 mph ESE3.2 kmh ESE 4.0 mph6.4 kmh 29.73 in1006.8 mb 0.00 in0.0 mm 0.00 in0.0 mm 0.00 in0.0 mm
08:30 AM 92.6°F33.7°C 55.7°F13.2°C 29% 2.0 mph E3.2 kmh E 4.0 mph6.4 kmh 29.72 in1006.4 mb 0.00 in0.0 mm 0.00 in0.0 mm 0.00 in0.0 mm
08:35 AM 93.1°F33.9°C 56.1°F13.4°C 29% 2.0 mph E3.2 kmh E 4.0 mph6.4 kmh 29.72 in1006.4 mb 0.00 in0.0 mm 0.00 in0.0 mm 0.00 in0.0 mm
08:40 AM 93.6°F34.2°C 55.6°F13.1°C 28% 2.0 mph E3.2 kmh E 4.0 mph6.4 kmh 29.72 in1006.4 mb 0.00 in0.0 mm 0.00 in0.0 mm 0.00 in0.0 mm
08:45 AM 94.4°F34.7°C 55.3°F12.9°C 27% 2.0 mph ESE3.2 kmh ESE 6.0 mph9.7 kmh 29.72 in1006.4 mb 0.00 in0.0 mm 0.00 in0.0 mm 0.00 in0.0 mm
08:50 AM 95.1°F35.1°C 54.8°F12.7°C 26% 2.0 mph SE3.2 kmh SE 6.0 mph9.7 kmh 29.72 in1006.4 mb 0.00 in0.0 mm 0.00 in0.0 mm 0.00 in0.0 mm
08:55 AM 95.7°F35.4°C 55.3°F12.9°C 26% 2.0 mph SE3.2 kmh SE 5.0 mph8.0 kmh 29.72 in1006.4 mb 0.00 in0.0 mm 0.00 in0.0 mm 0.00 in0.0 mm
09:00 AM 96.3°F35.7°C 54.8°F12.7°C 25% 2.0 mph SE3.2 kmh SE 4.0 mph6.4 kmh 29.72 in1006.4 mb 0.00 in0.0 mm 0.00 in0.0 mm 0.00 in0.0 mm
09:05 AM 96.7°F35.9°C 52.8°F11.6°C 23% 2.0 mph E3.2 kmh E 4.0 mph6.4 kmh 29.72 in1006.4 mb 0.00 in0.0 mm 0.00 in0.0 mm 0.00 in0.0 mm
09:10 AM 96.7°F35.9°C 52.8°F11.6°C 23% 2.0 mph N3.2 kmh N 5.0 mph8.0 kmh 29.72 in1006.4 mb 0.00 in0.0 mm 0.00 in0.0 mm 0.00 in0.0 mm
09:15 AM 97.0°F36.1°C 54.2°F12.3°C 24% 2.0 mph N3.2 kmh N 5.0 mph8.0 kmh 29.72 in1006.4 mb 0.00 in0.0 mm 0.00 in0.0 mm 0.00 in0.0 mm
09:20 AM 96.9°F36.1°C 53.0°F11.7°C 23% 2.0 mph N3.2 kmh N 6.0 mph9.7 kmh 29.72 in1006.4 mb 0.00 in0.0 mm 0.00 in0.0 mm 0.00 in0.0 mm
09:25 AM 96.6°F35.9°C 53.9°F12.2°C 24% 3.0 mph N4.8 kmh N 6.0 mph9.7 kmh 29.72 in1006.4 mb 0.00 in0.0 mm 0.00 in0.0 mm 0.00 in0.0 mm
09:30 AM 96.5°F35.8°C 53.8°F12.1°C 24% 2.0 mph N3.2 kmh N 5.0 mph8.0 kmh 29.72 in1006.4 mb 0.00 in0.0 mm 0.00 in0.0 mm 0.00 in0.0 mm
09:35 AM 96.4°F35.8°C 53.7°F12.1°C 24% 3.0 mph N4.8 kmh N 5.0 mph8.0 kmh 29.72 in1006.4 mb 0.00 in0.0 mm 0.00 in0.0 mm 0.00 in0.0 mm
09:40 AM 96.7°F35.9°C 54.0°F12.2°C 24% 3.0 mph N4.8 kmh N 8.0 mph12.9 kmh 29.71 in1006.1 mb 0.00 in0.0 mm 0.00 in0.0 mm 0.00 in0.0 mm
09:45 AM 96.3°F35.7°C 53.6°F12.0°C 24% 3.0 mph NNW4.8 kmh NNW 8.0 mph12.9 kmh 29.71 in1006.1 mb 0.00 in0.0 mm 0.00 in0.0 mm 0.00 in0.0 mm
09:50 AM 96.5°F35.8°C 53.8°F12.1°C 24% 4.0 mph NNW6.4 kmh NNW 8.0 mph12.9 kmh 29.71 in1006.1 mb 0.00 in0.0 mm 0.00 in0.0 mm 0.00 in0.0 mm
09:55 AM 96.8°F36.0°C 54.1°F12.3°C 24% 4.0 mph NW6.4 kmh NW 8.0 mph12.9 kmh 29.71 in1006.1 mb 0.00 in0.0 mm 0.00 in0.0 mm 0.00 in0.0 mm
10:00 AM 97.2°F36.2°C 54.4°F12.4°C 24% 3.0 mph WNW4.8 kmh WNW 8.0 mph12.9 kmh 29.71 in1006.1 mb 0.00 in0.0 mm 0.00 in0.0 mm 0.00 in0.0 mm
10:05 AM 97.5°F36.4°C 53.5°F11.9°C 23% 3.0 mph W4.8 kmh W 7.0 mph11.3 kmh 29.71 in1006.1 mb 0.00 in0.0 mm 0.00 in0.0 mm 0.00 in0.0 mm
10:10 AM 97.9°F36.6°C 53.8°F12.1°C 23% 3.0 mph WNW4.8 kmh WNW 5.0 mph8.0 kmh 29.71 in1006.1 mb 0.00 in0.0 mm 0.00 in0.0 mm 0.00 in0.0 mm
10:15 AM 98.3°F36.8°C 52.9°F11.6°C 22% 3.0 mph NW4.8 kmh NW 7.0 mph11.3 kmh 29.71 in1006.1 mb 0.00 in0.0 mm 0.00 in0.0 mm 0.00 in0.0 mm
10:20 AM 98.7°F37.1°C 53.3°F11.8°C 22% 4.0 mph W6.4 kmh W 8.0 mph12.9 kmh 29.71 in1006.1 mb 0.00 in0.0 mm 0.00 in0.0 mm 0.00 in0.0 mm
10:25 AM 99.0°F37.2°C 52.2°F11.2°C 21% 4.0 mph WNW6.4 kmh WNW 8.0 mph12.9 kmh 29.71 in1006.1 mb 0.00 in0.0 mm 0.00 in0.0 mm 0.00 in0.0 mm
10:30 AM 99.3°F37.4°C 53.8°F12.1°C 22% 3.0 mph W4.8 kmh W 7.0 mph11.3 kmh 29.70 in1005.8 mb 0.00 in0.0 mm 0.00 in0.0 mm 0.00 in0.0 mm
10:35 AM 99.5°F37.5°C 52.7°F11.5°C 21% 3.0 mph W4.8 kmh W 8.0 mph12.9 kmh 29.70 in1005.8 mb 0.00 in0.0 mm 0.00 in0.0 mm 0.00 in0.0 mm
10:40 AM 99.7°F37.6°C 52.8°F11.6°C 21% 4.0 mph WSW6.4 kmh WSW 9.0 mph14.5 kmh 29.70 in1005.8 mb 0.00 in0.0 mm 0.00 in0.0 mm 0.00 in0.0 mm
10:45 AM 99.8°F37.7°C 51.6°F10.9°C 20% 4.0 mph WSW6.4 kmh WSW 9.0 mph14.5 kmh 29.70 in1005.8 mb 0.00 in0.0 mm 0.00 in0.0 mm 0.00 in0.0 mm
10:50 AM 100.0°F37.8°C 51.7°F10.9°C 20% 4.0 mph W6.4 kmh W 9.0 mph14.5 kmh 29.70 in1005.8 mb 0.00 in0.0 mm 0.00 in0.0 mm 0.00 in0.0 mm
10:55 AM 100.8°F38.2°C 52.4°F11.3°C 20% 4.0 mph WNW6.4 kmh WNW 11.0 mph17.7 kmh 29.69 in1005.4 mb 0.00 in0.0 mm 0.00 in0.0 mm 0.00 in0.0 mm
11:00 AM 100.8°F38.2°C 51.0°F10.6°C 19% 4.0 mph WSW6.4 kmh WSW 11.0 mph17.7 kmh 29.69 in1005.4 mb 0.00 in0.0 mm 0.00 in0.0 mm 0.00 in0.0 mm
11:05 AM 100.6°F38.1°C 50.8°F10.4°C 19% 5.0 mph WSW8.0 kmh WSW 10.0 mph16.1 kmh 29.69 in1005.4 mb 0.00 in0.0 mm 0.00 in0.0 mm 0.00 in0.0 mm
11:10 AM 100.7°F38.2°C 50.9°F10.5°C 19% 4.0 mph W6.4 kmh W 10.0 mph16.1 kmh 29.69 in1005.4 mb 0.00 in0.0 mm 0.00 in0.0 mm 0.00 in0.0 mm
11:15 AM 101.3°F38.5°C 49.9°F9.9°C 18% 4.0 mph WNW6.4 kmh WNW 8.0 mph12.9 kmh 29.68 in1005.1 mb 0.00 in0.0 mm 0.00 in0.0 mm 0.00 in0.0 mm
11:20 AM 101.5°F38.6°C 50.1°F10.1°C 18% 4.0 mph WNW6.4 kmh WNW 11.0 mph17.7 kmh 29.68 in1005.1 mb 0.00 in0.0 mm 0.00 in0.0 mm 0.00 in0.0 mm
11:25 AM 102.0°F38.9°C 49.0°F9.4°C 17% 5.0 mph WSW8.0 kmh WSW 11.0 mph17.7 kmh 29.68 in1005.1 mb 0.00 in0.0 mm 0.00 in0.0 mm 0.00 in0.0 mm
11:30 AM 101.8°F38.8°C 48.8°F9.3°C 17% 5.0 mph WSW8.0 kmh WSW 10.0 mph16.1 kmh 29.68 in1005.1 mb 0.00 in0.0 mm 0.00 in0.0 mm 0.00 in0.0 mm
11:35 AM 102.0°F38.9°C 49.0°F9.4°C 17% 5.0 mph WSW8.0 kmh WSW 9.0 mph14.5 kmh 29.68 in1005.1 mb 0.00 in0.0 mm 0.00 in0.0 mm 0.00 in0.0 mm
11:40 AM 102.1°F38.9°C 49.1°F9.5°C 17% 5.0 mph WSW8.0 kmh WSW 9.0 mph14.5 kmh 29.68 in1005.1 mb 0.00 in0.0 mm 0.00 in0.0 mm 0.00 in0.0 mm
11:45 AM 102.5°F39.2°C 49.4°F9.7°C 17% 4.0 mph WSW6.4 kmh WSW 8.0 mph12.9 kmh 29.68 in1005.1 mb 0.00 in0.0 mm 0.00 in0.0 mm 0.00 in0.0 mm
11:50 AM 102.8°F39.3°C 49.6°F9.8°C 17% 4.0 mph W6.4 kmh W 10.0 mph16.1 kmh 29.67 in1004.7 mb 0.00 in0.0 mm 0.00 in0.0 mm 0.00 in0.0 mm
11:55 AM 102.8°F39.3°C 49.6°F9.8°C 17% 5.0 mph NW8.0 kmh NW 11.0 mph17.7 kmh 29.67 in1004.7 mb 0.00 in0.0 mm 0.00 in0.0 mm 0.00 in0.0 mm
12:00 PM 103.0°F39.4°C 49.8°F9.9°C 17% 6.0 mph WNW9.7 kmh WNW 11.0 mph17.7 kmh 29.67 in1004.7 mb 0.00 in0.0 mm 0.00 in0.0 mm 0.00 in0.0 mm
12:05 PM 103.2°F39.6°C 49.9°F9.9°C 17% 5.0 mph W8.0 kmh W 9.0 mph14.5 kmh 29.67 in1004.7 mb 0.00 in0.0 mm 0.00 in0.0 mm 0.00 in0.0 mm
12:10 PM 103.3°F39.6°C 50.0°F10.0°C 17% 5.0 mph W8.0 kmh W 10.0 mph16.1 kmh 29.67 in1004.7 mb 0.00 in0.0 mm 0.00 in0.0 mm 0.00 in0.0 mm
12:15 PM 103.5°F39.7°C 50.2°F10.1°C 17% 5.0 mph WNW8.0 kmh WNW 10.0 mph16.1 kmh 29.66 in1004.4 mb 0.00 in0.0 mm 0.00 in0.0 mm 0.00 in0.0 mm
12:20 PM 103.6°F39.8°C 50.3°F10.2°C 17% 5.0 mph W8.0 kmh W 9.0 mph14.5 kmh 29.66 in1004.4 mb 0.00 in0.0 mm 0.00 in0.0 mm 0.00 in0.0 mm
12:25 PM 103.7°F39.8°C 50.3°F10.2°C 17% 5.0 mph W8.0 kmh W 11.0 mph17.7 kmh 29.66 in1004.4 mb 0.00 in0.0 mm 0.00 in0.0 mm 0.00 in0.0 mm
12:30 PM 103.9°F39.9°C 50.5°F10.3°C 17% 5.0 mph W8.0 kmh W 11.0 mph17.7 kmh 29.66 in1004.4 mb 0.00 in0.0 mm 0.00 in0.0 mm 0.00 in0.0 mm
12:35 PM 104.0°F40.0°C 50.6°F10.3°C 17% 5.0 mph W8.0 kmh W 10.0 mph16.1 kmh 29.66 in1004.4 mb 0.00 in0.0 mm 0.00 in0.0 mm 0.00 in0.0 mm
12:40 PM 104.3°F40.2°C 49.2°F9.6°C 16% 4.0 mph WNW6.4 kmh WNW 12.0 mph19.3 kmh 29.66 in1004.4 mb 0.00 in0.0 mm 0.00 in0.0 mm 0.00 in0.0 mm
12:45 PM 104.4°F40.2°C 49.3°F9.6°C 16% 6.0 mph NW9.7 kmh NW 15.0 mph24.1 kmh 29.65 in1004.1 mb 0.00 in0.0 mm 0.00 in0.0 mm 0.00 in0.0 mm
12:50 PM 104.5°F40.3°C 49.3°F9.6°C 16% 6.0 mph WNW9.7 kmh WNW 15.0 mph24.1 kmh 29.65 in1004.1 mb 0.00 in0.0 mm 0.00 in0.0 mm 0.00 in0.0 mm
12:55 PM 104.7°F40.4°C 49.5°F9.7°C 16% 5.0 mph WSW8.0 kmh WSW 13.0 mph20.9 kmh 29.65 in1004.1 mb 0.00 in0.0 mm 0.00 in0.0 mm 0.00 in0.0 mm
01:00 PM 105.0°F40.6°C 48.0°F8.9°C 15% 5.0 mph SW8.0 kmh SW 13.0 mph20.9 kmh 29.64 in1003.7 mb 0.00 in0.0 mm 0.00 in0.0 mm 0.00 in0.0 mm
01:05 PM 105.1°F40.6°C 48.1°F8.9°C 15% 6.0 mph WSW9.7 kmh WSW 12.0 mph19.3 kmh 29.64 in1003.7 mb 0.00 in0.0 mm 0.00 in0.0 mm 0.00 in0.0 mm
01:10 PM 105.3°F40.7°C 48.2°F9.0°C 15% 6.0 mph W9.7 kmh W 12.0 mph19.3 kmh 29.64 in1003.7 mb 0.00 in0.0 mm 0.00 in0.0 mm 0.00 in0.0 mm
01:15 PM 105.3°F40.7°C 48.2°F9.0°C 15% 5.0 mph W8.0 kmh W 10.0 mph16.1 kmh 29.64 in1003.7 mb 0.00 in0.0 mm 0.00 in0.0 mm 0.00 in0.0 mm
01:20 PM 105.2°F40.7°C 48.2°F9.0°C 15% 6.0 mph W9.7 kmh W 13.0 mph20.9 kmh 29.64 in1003.7 mb 0.00 in0.0 mm 0.00 in0.0 mm 0.00 in0.0 mm
01:25 PM 105.5°F40.8°C 48.4°F9.1°C 15% 6.0 mph W9.7 kmh W 13.0 mph20.9 kmh 29.63 in1003.4 mb 0.00 in0.0 mm 0.00 in0.0 mm 0.00 in0.0 mm
01:30 PM 106.1°F41.2°C 47.0°F8.3°C 14% 6.0 mph WNW9.7 kmh WNW 14.0 mph22.5 kmh 29.63 in1003.4 mb 0.00 in0.0 mm 0.00 in0.0 mm 0.00 in0.0 mm
01:35 PM 106.4°F41.3°C 47.3°F8.5°C 14% 6.0 mph W9.7 kmh W 14.0 mph22.5 kmh 29.63 in1003.4 mb 0.00 in0.0 mm 0.00 in0.0 mm 0.00 in0.0 mm
01:40 PM 106.6°F41.4°C 47.4°F8.6°C 14% 6.0 mph W9.7 kmh W 13.0 mph20.9 kmh 29.63 in1003.4 mb 0.00 in0.0 mm 0.00 in0.0 mm 0.00 in0.0 mm
01:45 PM 106.9°F41.6°C 47.7°F8.7°C 14% 6.0 mph WNW9.7 kmh WNW 13.0 mph20.9 kmh 29.63 in1003.4 mb 0.00 in0.0 mm 0.00 in0.0 mm 0.00 in0.0 mm
01:50 PM 106.7°F41.5°C 47.5°F8.6°C 14% 7.0 mph W11.3 kmh W 12.0 mph19.3 kmh 29.62 in1003.0 mb 0.00 in0.0 mm 0.00 in0.0 mm 0.00 in0.0 mm
01:55 PM 106.4°F41.3°C 47.3°F8.5°C 14% 7.0 mph W11.3 kmh W 12.0 mph19.3 kmh 29.62 in1003.0 mb 0.00 in0.0 mm 0.00 in0.0 mm 0.00 in0.0 mm
02:00 PM 106.7°F41.5°C 47.5°F8.6°C 14% 8.0 mph W12.9 kmh W 13.0 mph20.9 kmh 29.62 in1003.0 mb 0.00 in0.0 mm 0.00 in0.0 mm 0.00 in0.0 mm
02:10 PM 106.8°F41.6°C 45.6°F7.6°C 13% 7.0 mph WNW11.3 kmh WNW 17.0 mph27.4 kmh 29.62 in1003.0 mb 0.00 in0.0 mm 0.00 in0.0 mm 0.00 in0.0 mm
02:15 PM 106.6°F41.4°C 45.5°F7.5°C 13% 8.0 mph W12.9 kmh W 17.0 mph27.4 kmh 29.61 in1002.7 mb 0.00 in0.0 mm 0.00 in0.0 mm 0.00 in0.0 mm
02:20 PM 106.6°F41.4°C 45.5°F7.5°C 13% 8.0 mph W12.9 kmh W 18.0 mph29.0 kmh 29.61 in1002.7 mb 0.00 in0.0 mm 0.00 in0.0 mm 0.00 in0.0 mm
02:25 PM 106.7°F41.5°C 45.5°F7.5°C 13% 8.0 mph W12.9 kmh W 18.0 mph29.0 kmh 29.61 in1002.7 mb 0.00 in0.0 mm 0.00 in0.0 mm 0.00 in0.0 mm
02:30 PM 107.0°F41.7°C 45.8°F7.7°C 13% 8.0 mph W12.9 kmh W 18.0 mph29.0 kmh 29.61 in1002.7 mb 0.00 in0.0 mm 0.00 in0.0 mm 0.00 in0.0 mm
02:35 PM 107.0°F41.7°C 45.8°F7.7°C 13% 8.0 mph W12.9 kmh W 18.0 mph29.0 kmh 29.61 in1002.7 mb 0.00 in0.0 mm 0.00 in0.0 mm 0.00 in0.0 mm
02:40 PM 107.1°F41.7°C 45.9°F7.7°C 13% 8.0 mph W12.9 kmh W 18.0 mph29.0 kmh 29.60 in1002.4 mb 0.00 in0.0 mm 0.00 in0.0 mm 0.00 in0.0 mm
02:45 PM 107.1°F41.7°C 45.9°F7.7°C 13% 9.0 mph W14.5 kmh W 16.0 mph25.7 kmh 29.60 in1002.4 mb 0.00 in0.0 mm 0.00 in0.0 mm 0.00 in0.0 mm
02:50 PM 107.2°F41.8°C 43.8°F6.6°C 12% 8.0 mph W12.9 kmh W 16.0 mph25.7 kmh 29.60 in1002.4 mb 0.00 in0.0 mm 0.00 in0.0 mm 0.00 in0.0 mm
02:55 PM 107.4°F41.9°C 44.0°F6.7°C 12% 8.0 mph W12.9 kmh W 16.0 mph25.7 kmh 29.59 in1002.0 mb 0.00 in0.0 mm 0.00 in0.0 mm 0.00 in0.0 mm
03:00 PM 107.2°F41.8°C 43.8°F6.6°C 12% 8.0 mph W12.9 kmh W 16.0 mph25.7 kmh 29.59 in1002.0 mb 0.00 in0.0 mm 0.00 in0.0 mm 0.00 in0.0 mm
03:05 PM 107.1°F41.7°C 43.7°F6.5°C 12% 8.0 mph W12.9 kmh W 18.0 mph29.0 kmh 29.59 in1002.0 mb 0.00 in0.0 mm 0.00 in0.0 mm 0.00 in0.0 mm
03:10 PM 107.0°F41.7°C 43.7°F6.5°C 12% 9.0 mph W14.5 kmh W 18.0 mph29.0 kmh 29.59 in1002.0 mb 0.00 in0.0 mm 0.00 in0.0 mm 0.00 in0.0 mm
03:15 PM 107.1°F41.7°C 43.7°F6.5°C 12% 8.0 mph W12.9 kmh W 15.0 mph24.1 kmh 29.59 in1002.0 mb 0.00 in0.0 mm 0.00 in0.0 mm 0.00 in0.0 mm
03:20 PM 107.0°F41.7°C 43.7°F6.5°C 12% 8.0 mph W12.9 kmh W 17.0 mph27.4 kmh 29.58 in1001.7 mb 0.00 in0.0 mm 0.00 in0.0 mm 0.00 in0.0 mm
03:25 PM 107.0°F41.7°C 43.7°F6.5°C 12% 9.0 mph W14.5 kmh W 17.0 mph27.4 kmh 29.59 in1002.0 mb 0.00 in0.0 mm 0.00 in0.0 mm 0.00 in0.0 mm
03:30 PM 107.0°F41.7°C 43.7°F6.5°C 12% 9.0 mph W14.5 kmh W 19.0 mph30.6 kmh 29.58 in1001.7 mb 0.00 in0.0 mm 0.00 in0.0 mm 0.00 in0.0 mm
03:35 PM 106.9°F41.6°C 43.6°F6.4°C 12% 9.0 mph W14.5 kmh W 19.0 mph30.6 kmh 29.58 in1001.7 mb 0.00 in0.0 mm 0.00 in0.0 mm 0.00 in0.0 mm
03:40 PM 106.9°F41.6°C 43.6°F6.4°C 12% 9.0 mph W14.5 kmh W 17.0 mph27.4 kmh 29.58 in1001.7 mb 0.00 in0.0 mm 0.00 in0.0 mm 0.00 in0.0 mm
03:45 PM 106.9°F41.6°C 43.6°F6.4°C 12% 9.0 mph WNW14.5 kmh WNW 17.0 mph27.4 kmh 29.57 in1001.4 mb 0.00 in0.0 mm 0.00 in0.0 mm 0.00 in0.0 mm
03:50 PM 106.6°F41.4°C 43.4°F6.3°C 12% 10.0 mph WNW16.1 kmh WNW 18.0 mph29.0 kmh 29.57 in1001.4 mb 0.00 in0.0 mm 0.00 in0.0 mm 0.00 in0.0 mm
03:55 PM 106.7°F41.5°C 43.4°F6.3°C 12% 10.0 mph W16.1 kmh W 18.0 mph29.0 kmh 29.57 in1001.4 mb 0.00 in0.0 mm 0.00 in0.0 mm 0.00 in0.0 mm
04:00 PM 106.7°F41.5°C 43.4°F6.3°C 12% 9.0 mph W14.5 kmh W 15.0 mph24.1 kmh 29.57 in1001.4 mb 0.00 in0.0 mm 0.00 in0.0 mm 0.00 in0.0 mm
04:05 PM 106.5°F41.4°C 43.3°F6.3°C 12% 10.0 mph W16.1 kmh W 16.0 mph25.7 kmh 29.57 in1001.4 mb 0.00 in0.0 mm 0.00 in0.0 mm 0.00 in0.0 mm
04:10 PM 106.6°F41.4°C 43.4°F6.3°C 12% 10.0 mph WNW16.1 kmh WNW 17.0 mph27.4 kmh 29.57 in1001.4 mb 0.00 in0.0 mm 0.00 in0.0 mm 0.00 in0.0 mm
04:15 PM 106.9°F41.6°C 43.6°F6.4°C 12% 9.0 mph NW14.5 kmh NW 17.0 mph27.4 kmh 29.57 in1001.4 mb 0.00 in0.0 mm 0.00 in0.0 mm 0.00 in0.0 mm
04:20 PM 106.7°F41.5°C 43.4°F6.3°C 12% 9.0 mph WNW14.5 kmh WNW 22.0 mph35.4 kmh 29.56 in1001.0 mb 0.00 in0.0 mm 0.00 in0.0 mm 0.00 in0.0 mm
04:25 PM 106.3°F41.3°C 43.1°F6.2°C 12% 10.0 mph W16.1 kmh W 22.0 mph35.4 kmh 29.56 in1001.0 mb 0.00 in0.0 mm 0.00 in0.0 mm 0.00 in0.0 mm
04:30 PM 106.0°F41.1°C 42.9°F6.1°C 12% 11.0 mph WNW17.7 kmh WNW 19.0 mph30.6 kmh 29.56 in1001.0 mb 0.00 in0.0 mm 0.00 in0.0 mm 0.00 in0.0 mm
04:35 PM 106.0°F41.1°C 42.9°F6.1°C 12% 10.0 mph WNW16.1 kmh WNW 19.0 mph30.6 kmh 29.56 in1001.0 mb 0.00 in0.0 mm 0.00 in0.0 mm 0.00 in0.0 mm
04:40 PM 106.0°F41.1°C 42.9°F6.1°C 12% 10.0 mph WNW16.1 kmh WNW 19.0 mph30.6 kmh 29.56 in1001.0 mb 0.00 in0.0 mm 0.00 in0.0 mm 0.00 in0.0 mm
04:45 PM 105.9°F41.1°C 42.8°F6.0°C 12% 10.0 mph W16.1 kmh W 19.0 mph30.6 kmh 29.56 in1001.0 mb 0.00 in0.0 mm 0.00 in0.0 mm 0.00 in0.0 mm
04:50 PM 105.7°F40.9°C 42.7°F5.9°C 12% 10.0 mph W16.1 kmh W 19.0 mph30.6 kmh 29.55 in1000.7 mb 0.00 in0.0 mm 0.00 in0.0 mm 0.00 in0.0 mm
04:55 PM 105.7°F40.9°C 42.7°F5.9°C 12% 10.0 mph W16.1 kmh W 19.0 mph30.6 kmh 29.56 in1001.0 mb 0.00 in0.0 mm 0.00 in0.0 mm 0.00 in0.0 mm
05:00 PM 105.7°F40.9°C 42.7°F5.9°C 12% 9.0 mph WNW14.5 kmh WNW 16.0 mph25.7 kmh 29.55 in1000.7 mb 0.00 in0.0 mm 0.00 in0.0 mm 0.00 in0.0 mm
05:05 PM 105.7°F40.9°C 42.7°F5.9°C 12% 9.0 mph WNW14.5 kmh WNW 16.0 mph25.7 kmh 29.55 in1000.7 mb 0.00 in0.0 mm 0.00 in0.0 mm 0.00 in0.0 mm
05:10 PM 105.7°F40.9°C 42.7°F5.9°C 12% 10.0 mph WNW16.1 kmh WNW 16.0 mph25.7 kmh 29.55 in1000.7 mb 0.00 in0.0 mm 0.00 in0.0 mm 0.00 in0.0 mm
05:15 PM 105.5°F40.8°C 42.5°F5.8°C 12% 10.0 mph WNW16.1 kmh WNW 16.0 mph25.7 kmh 29.55 in1000.7 mb 0.00 in0.0 mm 0.00 in0.0 mm 0.00 in0.0 mm
05:20 PM 105.3°F40.7°C 42.4°F5.8°C 12% 10.0 mph WNW16.1 kmh WNW 18.0 mph29.0 kmh 29.55 in1000.7 mb 0.00 in0.0 mm 0.00 in0.0 mm 0.00 in0.0 mm
05:25 PM 105.3°F40.7°C 44.5°F6.9°C 13% 10.0 mph WNW16.1 kmh WNW 18.0 mph29.0 kmh 29.55 in1000.7 mb 0.00 in0.0 mm 0.00 in0.0 mm 0.00 in0.0 mm
05:30 PM 105.2°F40.7°C 42.3°F5.7°C 12% 9.0 mph WNW14.5 kmh WNW 19.0 mph30.6 kmh 29.55 in1000.7 mb 0.00 in0.0 mm 0.00 in0.0 mm 0.00 in0.0 mm
05:35 PM 105.1°F40.6°C 42.2°F5.7°C 12% 10.0 mph WNW16.1 kmh WNW 19.0 mph30.6 kmh 29.56 in1001.0 mb 0.00 in0.0 mm 0.00 in0.0 mm 0.00 in0.0 mm
05:40 PM 104.8°F40.4°C 42.0°F5.6°C 12% 10.0 mph WNW16.1 kmh WNW 19.0 mph30.6 kmh 29.56 in1001.0 mb 0.00 in0.0 mm 0.00 in0.0 mm 0.00 in0.0 mm
05:45 PM 104.6°F40.3°C 41.8°F5.4°C 12% 10.0 mph WNW16.1 kmh WNW 19.0 mph30.6 kmh 29.56 in1001.0 mb 0.00 in0.0 mm 0.00 in0.0 mm 0.00 in0.0 mm
05:50 PM 104.5°F40.3°C 43.8°F6.6°C 13% 10.0 mph WNW16.1 kmh WNW 19.0 mph30.6 kmh 29.55 in1000.7 mb 0.00 in0.0 mm 0.00 in0.0 mm 0.00 in0.0 mm
05:55 PM 104.3°F40.2°C 43.7°F6.5°C 13% 9.0 mph WNW14.5 kmh WNW 17.0 mph27.4 kmh 29.55 in1000.7 mb 0.00 in0.0 mm 0.00 in0.0 mm 0.00 in0.0 mm
06:00 PM 104.2°F40.1°C 43.6°F6.4°C 13% 8.0 mph WNW12.9 kmh WNW 16.0 mph25.7 kmh 29.56 in1001.0 mb 0.00 in0.0 mm 0.00 in0.0 mm 0.00 in0.0 mm
06:05 PM 104.1°F40.1°C 43.5°F6.4°C 13% 8.0 mph WNW12.9 kmh WNW 15.0 mph24.1 kmh 29.56 in1001.0 mb 0.00 in0.0 mm 0.00 in0.0 mm 0.00 in0.0 mm
06:10 PM 103.9°F39.9°C 41.3°F5.2°C 12% 10.0 mph WNW16.1 kmh WNW 20.0 mph32.2 kmh 29.56 in1001.0 mb 0.00 in0.0 mm 0.00 in0.0 mm 0.00 in0.0 mm
06:15 PM 103.7°F39.8°C 43.2°F6.2°C 13% 9.0 mph W14.5 kmh W 20.0 mph32.2 kmh 29.56 in1001.0 mb 0.00 in0.0 mm 0.00 in0.0 mm 0.00 in0.0 mm
06:20 PM 103.7°F39.8°C 43.2°F6.2°C 13% 8.0 mph WNW12.9 kmh WNW 16.0 mph25.7 kmh 29.56 in1001.0 mb 0.00 in0.0 mm 0.00 in0.0 mm 0.00 in0.0 mm
06:25 PM 103.5°F39.7°C 43.1°F6.2°C 13% 9.0 mph WNW14.5 kmh WNW 16.0 mph25.7 kmh 29.55 in1000.7 mb 0.00 in0.0 mm 0.00 in0.0 mm 0.00 in0.0 mm
06:30 PM 103.4°F39.7°C 43.0°F6.1°C 13% 8.0 mph WNW12.9 kmh WNW 13.0 mph20.9 kmh 29.56 in1001.0 mb 0.00 in0.0 mm 0.00 in0.0 mm 0.00 in0.0 mm
06:35 PM 103.2°F39.6°C 42.8°F6.0°C 13% 8.0 mph WNW12.9 kmh WNW 14.0 mph22.5 kmh 29.56 in1001.0 mb 0.00 in0.0 mm 0.00 in0.0 mm 0.00 in0.0 mm
06:40 PM 102.8°F39.3°C 42.5°F5.8°C 13% 9.0 mph WNW14.5 kmh WNW 18.0 mph29.0 kmh 29.56 in1001.0 mb 0.00 in0.0 mm 0.00 in0.0 mm 0.00 in0.0 mm
06:45 PM 102.4°F39.1°C 42.2°F5.7°C 13% 8.0 mph WNW12.9 kmh WNW 18.0 mph29.0 kmh 29.56 in1001.0 mb 0.00 in0.0 mm 0.00 in0.0 mm 0.00 in0.0 mm
06:50 PM 102.1°F38.9°C 43.9°F6.6°C 14% 9.0 mph WNW14.5 kmh WNW 16.0 mph25.7 kmh 29.56 in1001.0 mb 0.00 in0.0 mm 0.00 in0.0 mm 0.00 in0.0 mm
06:55 PM 101.7°F38.7°C 43.6°F6.4°C 14% 10.0 mph WNW16.1 kmh WNW 17.0 mph27.4 kmh 29.56 in1001.0 mb 0.00 in0.0 mm 0.00 in0.0 mm 0.00 in0.0 mm
07:00 PM 101.5°F38.6°C 43.4°F6.3°C 14% 8.0 mph WNW12.9 kmh WNW 17.0 mph27.4 kmh 29.56 in1001.0 mb 0.00 in0.0 mm 0.00 in0.0 mm 0.00 in0.0 mm
07:05 PM 101.2°F38.4°C 43.2°F6.2°C 14% 8.0 mph WNW12.9 kmh WNW 16.0 mph25.7 kmh 29.57 in1001.4 mb 0.00 in0.0 mm 0.00 in0.0 mm 0.00 in0.0 mm
07:10 PM 100.9°F38.3°C 43.0°F6.1°C 14% 8.0 mph WNW12.9 kmh WNW 16.0 mph25.7 kmh 29.57 in1001.4 mb 0.00 in0.0 mm 0.00 in0.0 mm 0.00 in0.0 mm
07:15 PM 100.6°F38.1°C 42.7°F5.9°C 14% 7.0 mph WNW11.3 kmh WNW 17.0 mph27.4 kmh 29.57 in1001.4 mb 0.00 in0.0 mm 0.00 in0.0 mm 0.00 in0.0 mm
07:20 PM 100.4°F38.0°C 42.6°F5.9°C 14% 8.0 mph WNW12.9 kmh WNW 17.0 mph27.4 kmh 29.57 in1001.4 mb 0.00 in0.0 mm 0.00 in0.0 mm 0.00 in0.0 mm
07:25 PM 100.2°F37.9°C 44.2°F6.8°C 15% 7.0 mph WNW11.3 kmh WNW 15.0 mph24.1 kmh 29.57 in1001.4 mb 0.00 in0.0 mm 0.00 in0.0 mm 0.00 in0.0 mm
07:30 PM 100.0°F37.8°C 44.1°F6.7°C 15% 6.0 mph WNW9.7 kmh WNW 13.0 mph20.9 kmh 29.58 in1001.7 mb 0.00 in0.0 mm 0.00 in0.0 mm 0.00 in0.0 mm
07:35 PM 99.8°F37.7°C 43.9°F6.6°C 15% 7.0 mph WNW11.3 kmh WNW 13.0 mph20.9 kmh 29.58 in1001.7 mb 0.00 in0.0 mm 0.00 in0.0 mm 0.00 in0.0 mm
07:40 PM 99.6°F37.6°C 43.7°F6.5°C 15% 7.0 mph WNW11.3 kmh WNW 13.0 mph20.9 kmh 29.58 in1001.7 mb 0.00 in0.0 mm 0.00 in0.0 mm 0.00 in0.0 mm
07:45 PM 99.4°F37.4°C 43.6°F6.4°C 15% 6.0 mph WNW9.7 kmh WNW 11.0 mph17.7 kmh 29.58 in1001.7 mb 0.00 in0.0 mm 0.00 in0.0 mm 0.00 in0.0 mm
07:50 PM 99.3°F37.4°C 43.5°F6.4°C 15% 6.0 mph WNW9.7 kmh WNW 13.0 mph20.9 kmh 29.58 in1001.7 mb 0.00 in0.0 mm 0.00 in0.0 mm 0.00 in0.0 mm
07:55 PM 99.2°F37.3°C 43.4°F6.3°C 15% 7.0 mph WNW11.3 kmh WNW 13.0 mph20.9 kmh 29.59 in1002.0 mb 0.00 in0.0 mm 0.00 in0.0 mm 0.00 in0.0 mm
08:00 PM 99.0°F37.2°C 45.0°F7.2°C 16% 7.0 mph WNW11.3 kmh WNW 13.0 mph20.9 kmh 29.59 in1002.0 mb 0.00 in0.0 mm 0.00 in0.0 mm 0.00 in0.0 mm
08:05 PM 98.9°F37.2°C 44.9°F7.2°C 16% 7.0 mph WNW11.3 kmh WNW 13.0 mph20.9 kmh 29.59 in1002.0 mb 0.00 in0.0 mm 0.00 in0.0 mm 0.00 in0.0 mm
08:10 PM 98.7°F37.1°C 44.7°F7.1°C 16% 6.0 mph WNW9.7 kmh WNW 12.0 mph19.3 kmh 29.60 in1002.4 mb 0.00 in0.0 mm 0.00 in0.0 mm 0.00 in0.0 mm
08:15 PM 98.6°F37.0°C 44.6°F7.0°C 16% 5.0 mph NW8.0 kmh NW 11.0 mph17.7 kmh 29.61 in1002.7 mb 0.00 in0.0 mm 0.00 in0.0 mm 0.00 in0.0 mm
08:20 PM 98.3°F36.8°C 46.0°F7.8°C 17% 6.0 mph N9.7 kmh N 21.0 mph33.8 kmh 29.63 in1003.4 mb 0.00 in0.0 mm 0.00 in0.0 mm 0.00 in0.0 mm
08:25 PM 95.7°F35.4°C 56.4°F13.6°C 27% 10.0 mph NNE16.1 kmh NNE 22.0 mph35.4 kmh 29.63 in1003.4 mb 0.00 in0.0 mm 0.00 in0.0 mm 0.00 in0.0 mm
08:30 PM 90.5°F32.5°C 54.8°F12.7°C 30% 11.0 mph NE17.7 kmh NE 22.0 mph35.4 kmh 29.63 in1003.4 mb 0.02 in0.5 mm 0.24 in6.1 mm 0.02 in0.5 mm
08:35 PM 88.4°F31.3°C 55.6°F13.1°C 33% 9.0 mph NNE14.5 kmh NNE 19.0 mph30.6 kmh 29.64 in1003.7 mb 0.03 in0.8 mm 0.12 in3.0 mm 0.03 in0.8 mm
08:40 PM 86.1°F30.1°C 59.6°F15.3°C 41% 9.0 mph NNW14.5 kmh NNW 17.0 mph27.4 kmh 29.64 in1003.7 mb 0.04 in1.0 mm 0.12 in3.0 mm 0.04 in1.0 mm
08:45 PM 85.0°F29.4°C 54.3°F12.4°C 35% 7.0 mph NW11.3 kmh NW 17.0 mph27.4 kmh 29.64 in1003.7 mb 0.04 in1.0 mm 0.00 in0.0 mm 0.04 in1.0 mm
08:50 PM 85.4°F29.7°C 61.0°F16.1°C 44% 4.0 mph W6.4 kmh W 11.0 mph17.7 kmh 29.65 in1004.1 mb 0.04 in1.0 mm 0.00 in0.0 mm 0.04 in1.0 mm
08:55 PM 85.7°F29.8°C 60.6°F15.9°C 43% 2.0 mph WSW3.2 kmh WSW 6.0 mph9.7 kmh 29.65 in1004.1 mb 0.04 in1.0 mm 0.00 in0.0 mm 0.04 in1.0 mm
09:00 PM 85.9°F29.9°C 63.9°F17.7°C 48% 1.0 mph WSW1.6 kmh WSW 4.0 mph6.4 kmh 29.65 in1004.1 mb 0.04 in1.0 mm 0.00 in0.0 mm 0.04 in1.0 mm
09:05 PM 85.9°F29.9°C 50.0°F10.0°C 29% 2.0 mph S3.2 kmh S 5.0 mph8.0 kmh 29.66 in1004.4 mb 0.04 in1.0 mm 0.00 in0.0 mm 0.04 in1.0 mm
09:10 PM 87.3°F30.7°C 58.6°F14.8°C 38% 3.0 mph ESE4.8 kmh ESE 7.0 mph11.3 kmh 29.66 in1004.4 mb 0.04 in1.0 mm 0.00 in0.0 mm 0.04 in1.0 mm
09:15 PM 88.1°F31.2°C 56.2°F13.4°C 34% 3.0 mph E4.8 kmh E 7.0 mph11.3 kmh 29.67 in1004.7 mb 0.04 in1.0 mm 0.00 in0.0 mm 0.04 in1.0 mm
09:20 PM 88.6°F31.4°C 53.2°F11.8°C 30% 2.0 mph E3.2 kmh E 6.0 mph9.7 kmh 29.67 in1004.7 mb 0.04 in1.0 mm 0.00 in0.0 mm 0.04 in1.0 mm
09:25 PM 89.0°F31.7°C 55.3°F12.9°C 32% 2.0 mph ESE3.2 kmh ESE 6.0 mph9.7 kmh 29.67 in1004.7 mb 0.04 in1.0 mm 0.00 in0.0 mm 0.04 in1.0 mm
09:30 PM 89.4°F31.9°C 55.7°F13.2°C 32% 2.0 mph ESE3.2 kmh ESE 6.0 mph9.7 kmh 29.67 in1004.7 mb 0.02 in0.5 mm 0.00 in0.0 mm 0.04 in1.0 mm
09:35 PM 89.8°F32.1°C 54.2°F12.3°C 30% 3.0 mph SE4.8 kmh SE 11.0 mph17.7 kmh 29.67 in1004.7 mb 0.01 in0.3 mm 0.00 in0.0 mm 0.04 in1.0 mm
09:40 PM 90.4°F32.4°C 52.9°F11.6°C 28% 4.0 mph SSE6.4 kmh SSE 11.0 mph17.7 kmh 29.68 in1005.1 mb 0.00 in0.0 mm 0.00 in0.0 mm 0.04 in1.0 mm
09:45 PM 91.2°F32.9°C 52.5°F11.4°C 27% 5.0 mph SSE8.0 kmh SSE 10.0 mph16.1 kmh 29.68 in1005.1 mb 0.00 in0.0 mm 0.00 in0.0 mm 0.04 in1.0 mm
09:50 PM 91.8°F33.2°C 52.0°F11.1°C 26% 5.0 mph S8.0 kmh S 14.0 mph22.5 kmh 29.67 in1004.7 mb 0.00 in0.0 mm 0.00 in0.0 mm 0.04 in1.0 mm
09:55 PM 92.2°F33.4°C 51.3°F10.7°C 25% 5.0 mph S8.0 kmh S 14.0 mph22.5 kmh 29.67 in1004.7 mb 0.00 in0.0 mm 0.00 in0.0 mm 0.04 in1.0 mm
10:00 PM 92.3°F33.5°C 51.4°F10.8°C 25% 3.0 mph SSE4.8 kmh SSE 10.0 mph16.1 kmh 29.68 in1005.1 mb 0.00 in0.0 mm 0.00 in0.0 mm 0.04 in1.0 mm
10:05 PM 92.4°F33.6°C 50.4°F10.2°C 24% 2.0 mph SSE3.2 kmh SSE 6.0 mph9.7 kmh 29.68 in1005.1 mb 0.00 in0.0 mm 0.00 in0.0 mm 0.04 in1.0 mm
10:10 PM 92.5°F33.6°C 50.5°F10.3°C 24% 3.0 mph S4.8 kmh S 7.0 mph11.3 kmh 29.68 in1005.1 mb 0.00 in0.0 mm 0.00 in0.0 mm 0.04 in1.0 mm
10:15 PM 92.6°F33.7°C 50.5°F10.3°C 24% 5.0 mph S8.0 kmh S 11.0 mph17.7 kmh 29.68 in1005.1 mb 0.00 in0.0 mm 0.00 in0.0 mm 0.04 in1.0 mm
10:20 PM 92.7°F33.7°C 50.6°F10.3°C 24% 5.0 mph S8.0 kmh S 11.0 mph17.7 kmh 29.68 in1005.1 mb 0.00 in0.0 mm 0.00 in0.0 mm 0.04 in1.0 mm
10:25 PM 92.6°F33.7°C 51.6°F10.9°C 25% 4.0 mph S6.4 kmh S 8.0 mph12.9 kmh 29.68 in1005.1 mb 0.00 in0.0 mm 0.00 in0.0 mm 0.04 in1.0 mm
10:30 PM 92.5°F33.6°C 51.6°F10.9°C 25% 4.0 mph SSE6.4 kmh SSE 9.0 mph14.5 kmh 29.68 in1005.1 mb 0.00 in0.0 mm 0.00 in0.0 mm 0.04 in1.0 mm
10:35 PM 92.5°F33.6°C 50.5°F10.3°C 24% 4.0 mph SSE6.4 kmh SSE 9.0 mph14.5 kmh 29.69 in1005.4 mb 0.00 in0.0 mm 0.00 in0.0 mm 0.04 in1.0 mm
10:40 PM 92.3°F33.5°C 51.4°F10.8°C 25% 3.0 mph SE4.8 kmh SE 7.0 mph11.3 kmh 29.69 in1005.4 mb 0.00 in0.0 mm 0.00 in0.0 mm 0.04 in1.0 mm
10:45 PM 92.2°F33.4°C 51.3°F10.7°C 25% 4.0 mph SE6.4 kmh SE 12.0 mph19.3 kmh 29.69 in1005.4 mb 0.00 in0.0 mm 0.00 in0.0 mm 0.04 in1.0 mm
10:50 PM 92.0°F33.3°C 52.2°F11.2°C 26% 6.0 mph SE9.7 kmh SE 12.0 mph19.3 kmh 29.69 in1005.4 mb 0.00 in0.0 mm 0.00 in0.0 mm 0.04 in1.0 mm
10:55 PM 91.7°F33.2°C 53.0°F11.7°C 27% 6.0 mph SE9.7 kmh SE 16.0 mph25.7 kmh 29.69 in1005.4 mb 0.00 in0.0 mm 0.00 in0.0 mm 0.04 in1.0 mm
11:00 PM 91.3°F32.9°C 53.6°F12.0°C 28% 7.0 mph SE11.3 kmh SE 16.0 mph25.7 kmh 29.69 in1005.4 mb 0.00 in0.0 mm 0.00 in0.0 mm 0.04 in1.0 mm
11:05 PM 90.9°F32.7°C 54.2°F12.3°C 29% 7.0 mph SSE11.3 kmh SSE 15.0 mph24.1 kmh 29.70 in1005.8 mb 0.00 in0.0 mm 0.00 in0.0 mm 0.04 in1.0 mm
11:10 PM 90.5°F32.5°C 54.8°F12.7°C 30% 7.0 mph SSE11.3 kmh SSE 14.0 mph22.5 kmh 29.70 in1005.8 mb 0.00 in0.0 mm 0.00 in0.0 mm 0.04 in1.0 mm
11:15 PM 90.2°F32.3°C 54.6°F12.6°C 30% 8.0 mph SSE12.9 kmh SSE 14.0 mph22.5 kmh 29.70 in1005.8 mb 0.00 in0.0 mm 0.00 in0.0 mm 0.04 in1.0 mm
11:20 PM 89.9°F32.2°C 55.2°F12.9°C 31% 7.0 mph SSE11.3 kmh SSE 13.0 mph20.9 kmh 29.70 in1005.8 mb 0.00 in0.0 mm 0.00 in0.0 mm 0.04 in1.0 mm
11:25 PM 89.6°F32.0°C 55.8°F13.2°C 32% 6.0 mph SSE9.7 kmh SSE 13.0 mph20.9 kmh 29.70 in1005.8 mb 0.00 in0.0 mm 0.00 in0.0 mm 0.04 in1.0 mm
11:30 PM 89.3°F31.8°C 55.6°F13.1°C 32% 6.0 mph S9.7 kmh S 13.0 mph20.9 kmh 29.70 in1005.8 mb 0.00 in0.0 mm 0.00 in0.0 mm 0.04 in1.0 mm
11:35 PM 89.1°F31.7°C 55.4°F13.0°C 32% 5.0 mph S8.0 kmh S 13.0 mph20.9 kmh 29.71 in1006.1 mb 0.00 in0.0 mm 0.00 in0.0 mm 0.04 in1.0 mm
11:40 PM 88.9°F31.6°C 55.2°F12.9°C 32% 4.0 mph S6.4 kmh S 11.0 mph17.7 kmh 29.71 in1006.1 mb 0.00 in0.0 mm 0.00 in0.0 mm 0.04 in1.0 mm
11:45 PM 88.8°F31.6°C 55.1°F12.8°C 32% 3.0 mph S4.8 kmh S 8.0 mph12.9 kmh 29.72 in1006.4 mb 0.00 in0.0 mm 0.00 in0.0 mm 0.04 in1.0 mm
11:50 PM 88.6°F31.4°C 55.0°F12.8°C 32% 2.0 mph SSW3.2 kmh SSW 4.0 mph6.4 kmh 29.72 in1006.4 mb 0.00 in0.0 mm 0.00 in0.0 mm 0.04 in1.0 mm
11:55 PM 88.5°F31.4°C 55.7°F13.2°C 33% 1.0 mph SSW1.6 kmh SSW 4.0 mph6.4 kmh 29.73 in1006.8 mb 0.00 in0.0 mm 0.00 in0.0 mm 0.04 in1.0 mm